createdAt,value
2022-08-26T00:00:51.458Z,43.44
2022-08-26T00:03:20.640Z,43.45
2022-08-26T00:05:51.327Z,43.52
2022-08-26T00:08:21.720Z,43.54
2022-08-26T00:10:50.250Z,43.51
2022-08-26T00:13:19.614Z,43.65
2022-08-26T00:15:48.485Z,43.66
2022-08-26T00:18:22.265Z,43.82
2022-08-26T00:20:52.101Z,44.08
2022-08-26T00:23:24.234Z,43.90
2022-08-26T00:26:03.062Z,43.82
2022-08-26T00:28:31.542Z,43.98
2022-08-26T00:30:59.875Z,43.97
2022-08-26T00:33:28.426Z,44.31
2022-08-26T00:35:56.967Z,43.97
2022-08-26T00:38:25.488Z,44.09
2022-08-26T00:40:58.217Z,43.74
2022-08-26T00:43:30.385Z,44.02
2022-08-26T00:46:25.616Z,43.78
2022-08-26T00:49:16.153Z,43.80
2022-08-26T00:51:55.722Z,43.67
2022-08-26T00:54:27.538Z,43.83
2022-08-26T00:57:08.708Z,43.92
2022-08-26T00:59:57.020Z,43.86
2022-08-26T01:02:25.980Z,43.82
2022-08-26T01:05:01.685Z,44.20
2022-08-26T01:07:34.757Z,43.99
2022-08-26T01:10:11.761Z,44.23
2022-08-26T01:12:46.682Z,44.29
2022-08-26T01:15:27.944Z,44.12
2022-08-26T01:18:05.458Z,44.43
2022-08-26T01:21:02.396Z,44.49
2022-08-26T01:23:38.216Z,44.55
2022-08-26T01:26:19.568Z,44.49
2022-08-26T01:28:51.973Z,44.97
2022-08-26T01:31:25.670Z,44.94
2022-08-26T01:34:29.716Z,44.77
2022-08-26T01:37:13.773Z,44.89
2022-08-26T01:39:48.406Z,45.12
2022-08-26T01:42:18.971Z,45.27
2022-08-26T01:45:03.679Z,45.02
2022-08-26T01:47:35.609Z,45.25
2022-08-26T01:50:15.818Z,45.42
2022-08-26T01:53:08.881Z,45.34
2022-08-26T01:55:44.697Z,45.40
2022-08-26T01:58:21.348Z,45.33
2022-08-26T02:00:51.394Z,45.75
2022-08-26T02:03:22.550Z,45.43
2022-08-26T02:06:09.395Z,45.44
2022-08-26T02:08:44.757Z,45.64
2022-08-26T02:11:14.144Z,45.79
2022-08-26T02:13:59.663Z,45.86
2022-08-26T02:16:33.761Z,46.23
2022-08-26T02:19:08.401Z,46.04
2022-08-26T02:21:51.922Z,46.33
2022-08-26T02:24:29.118Z,46.22
2022-08-26T02:26:58.681Z,46.65
2022-08-26T02:29:41.310Z,46.19
2022-08-26T02:32:10.655Z,46.67
2022-08-26T02:34:40.606Z,46.67
2022-08-26T02:37:11.637Z,46.46
2022-08-26T02:39:42.516Z,46.46
2022-08-26T02:42:11.249Z,46.46
2022-08-26T02:44:40.937Z,46.74
2022-08-26T02:47:09.454Z,46.45
2022-08-26T02:49:40.861Z,46.55
2022-08-26T02:52:13.668Z,46.89
2022-08-26T02:54:42.188Z,47.13
2022-08-26T02:57:14.428Z,46.77
2022-08-26T02:59:42.674Z,47.32
2022-08-26T03:02:11.611Z,47.50
2022-08-26T03:04:41.346Z,47.53
2022-08-26T03:07:26.708Z,47.63
2022-08-26T03:09:56.937Z,47.75
2022-08-26T03:12:25.733Z,47.67
2022-08-26T03:14:54.056Z,47.92
2022-08-26T03:17:24.540Z,47.70
2022-08-26T03:19:57.342Z,47.71
2022-08-26T03:22:27.102Z,47.66
2022-08-26T03:24:56.788Z,47.57
2022-08-26T03:27:26.062Z,47.97
2022-08-26T03:30:13.733Z,47.85
2022-08-26T03:32:42.998Z,47.74
2022-08-26T03:35:12.988Z,47.91
2022-08-26T03:37:42.328Z,47.76
2022-08-26T03:40:12.628Z,47.63
2022-08-26T03:42:41.891Z,48.04
2022-08-26T03:45:15.889Z,47.64
2022-08-26T03:47:45.220Z,47.68
2022-08-26T03:50:22.593Z,47.81
2022-08-26T03:52:54.659Z,47.96
2022-08-26T03:55:32.209Z,47.98
2022-08-26T03:58:02.143Z,47.99
2022-08-26T04:00:31.827Z,47.86
2022-08-26T04:03:02.739Z,48.13
2022-08-26T04:05:32.109Z,48.03
2022-08-26T04:08:00.608Z,48.10
2022-08-26T04:10:29.625Z,48.43
2022-08-26T04:13:00.611Z,47.99
2022-08-26T04:15:29.773Z,48.11
2022-08-26T04:17:58.856Z,48.48
2022-08-26T04:20:28.205Z,48.23
2022-08-26T04:22:56.535Z,48.28
2022-08-26T04:25:25.995Z,48.56
2022-08-26T04:27:54.942Z,48.38
2022-08-26T04:30:22.738Z,48.41
2022-08-26T04:32:51.742Z,48.60
2022-08-26T04:35:25.701Z,48.77
2022-08-26T04:37:54.394Z,48.58
2022-08-26T04:40:23.493Z,48.53
2022-08-26T04:42:51.779Z,48.67
2022-08-26T04:45:22.786Z,48.70
2022-08-26T04:47:56.553Z,48.52
2022-08-26T04:50:26.568Z,48.77
2022-08-26T04:52:55.620Z,48.91
2022-08-26T04:55:37.253Z,48.88
2022-08-26T04:58:10.907Z,48.82
2022-08-26T05:00:39.828Z,48.74
2022-08-26T05:03:09.584Z,48.89
2022-08-26T05:05:43.365Z,49.12
2022-08-26T05:08:15.186Z,48.86
2022-08-26T05:10:50.601Z,48.78
2022-08-26T05:13:22.225Z,49.14
2022-08-26T05:15:51.910Z,49.18
2022-08-26T05:18:24.028Z,48.82
2022-08-26T05:20:54.876Z,49.06
2022-08-26T05:23:24.728Z,49.08
2022-08-26T05:25:59.342Z,48.90
2022-08-26T05:28:30.163Z,48.84
2022-08-26T05:30:58.588Z,48.85
2022-08-26T05:33:27.383Z,49.10
2022-08-26T05:35:56.659Z,49.04
2022-08-26T05:38:25.012Z,48.91
2022-08-26T05:41:00.863Z,49.12
2022-08-26T05:43:29.063Z,49.24
2022-08-26T05:46:07.076Z,49.14
2022-08-26T05:48:35.645Z,49.23
2022-08-26T05:51:10.249Z,49.60
2022-08-26T05:53:40.691Z,49.63
2022-08-26T05:56:16.157Z,49.51
2022-08-26T05:58:46.237Z,49.45
2022-08-26T06:01:21.462Z,49.27
2022-08-26T06:03:56.378Z,49.26
2022-08-26T06:06:37.364Z,49.24
2022-08-26T06:09:10.940Z,49.37
2022-08-26T06:11:40.037Z,48.79
2022-08-26T06:14:09.154Z,48.57
2022-08-26T06:16:41.304Z,48.51
2022-08-26T06:19:11.790Z,48.56
2022-08-26T06:21:42.802Z,48.07
2022-08-26T06:24:58.025Z,48.10
2022-08-26T06:27:47.111Z,47.93
2022-08-26T06:30:16.114Z,47.79
2022-08-26T06:32:46.150Z,47.75
2022-08-26T06:35:15.887Z,47.55
2022-08-26T06:37:44.838Z,47.29
2022-08-26T06:40:13.001Z,47.04
2022-08-26T06:42:41.104Z,47.16
2022-08-26T06:45:10.843Z,46.99
2022-08-26T06:47:39.868Z,46.86
2022-08-26T06:50:08.474Z,46.84
2022-08-26T06:52:37.054Z,46.69
2022-08-26T06:55:06.653Z,46.62
2022-08-26T06:57:37.719Z,46.34
2022-08-26T07:00:11.918Z,46.08
2022-08-26T07:02:40.998Z,46.19
2022-08-26T07:05:16.423Z,45.81
2022-08-26T07:07:44.359Z,45.71
2022-08-26T07:10:13.555Z,45.54
2022-08-26T07:12:43.313Z,45.37
2022-08-26T07:15:16.468Z,45.13
2022-08-26T07:17:44.877Z,45.06
2022-08-26T07:20:14.299Z,44.79
2022-08-26T07:22:44.986Z,44.46
2022-08-26T07:25:13.542Z,44.34
2022-08-26T07:27:42.005Z,44.25
2022-08-26T07:30:11.541Z,44.23
2022-08-26T07:32:43.509Z,44.16
2022-08-26T07:35:12.095Z,44.13
2022-08-26T07:37:41.385Z,44.12
2022-08-26T07:40:10.204Z,44.01
2022-08-26T07:42:40.930Z,43.63
2022-08-26T07:45:09.164Z,43.73
2022-08-26T07:47:41.141Z,43.69
2022-08-26T07:50:09.733Z,43.43
2022-08-26T07:52:38.325Z,43.56
2022-08-26T07:55:11.081Z,43.49
2022-08-26T07:57:40.359Z,43.30
2022-08-26T08:00:17.299Z,43.11
2022-08-26T08:02:46.133Z,42.87
2022-08-26T08:05:22.045Z,42.69
2022-08-26T08:08:19.684Z,42.20
2022-08-26T08:10:45.082Z,42.06
2022-08-26T08:13:17.354Z,42.03
2022-08-26T08:15:48.172Z,42.11
2022-08-26T08:18:20.491Z,41.69
2022-08-26T08:20:59.063Z,41.88
2022-08-26T08:23:33.835Z,41.22
2022-08-26T08:26:10.316Z,41.41
2022-08-26T08:28:40.141Z,41.11
2022-08-26T08:31:10.016Z,40.74
2022-08-26T08:33:39.717Z,40.24
2022-08-26T08:36:09.278Z,40.41
2022-08-26T08:38:40.536Z,40.33
2022-08-26T08:41:57.774Z,40.25
2022-08-26T08:47:01.811Z,39.53
2022-08-26T08:49:32.382Z,39.46
2022-08-26T08:52:13.446Z,39.23
2022-08-26T08:54:41.571Z,38.89
2022-08-26T08:57:26.978Z,38.70
2022-08-26T09:00:13.716Z,38.21
2022-08-26T09:03:09.574Z,38.28
2022-08-26T09:05:46.697Z,37.93
2022-08-26T09:08:23.226Z,38.16
2022-08-26T09:11:00.719Z,37.59
2022-08-26T09:13:31.912Z,37.37
2022-08-26T09:16:19.155Z,36.93
2022-08-26T09:19:14.474Z,36.89
2022-08-26T09:21:42.529Z,36.90
2022-08-26T09:24:11.350Z,36.59
2022-08-26T09:26:45.407Z,36.38
2022-08-26T09:29:25.846Z,36.63
2022-08-26T09:32:24.282Z,36.34
2022-08-26T09:35:04.477Z,36.31
2022-08-26T09:40:29.520Z,36.04
2022-08-26T09:43:22.651Z,35.80
2022-08-26T09:45:59.184Z,35.87
2022-08-26T09:48:40.638Z,35.77
2022-08-26T09:51:23.993Z,35.48
2022-08-26T09:54:03.936Z,35.68
2022-08-26T09:56:39.783Z,35.63
2022-08-26T09:59:11.979Z,35.31
2022-08-26T10:01:45.090Z,35.17
2022-08-26T10:04:26.720Z,35.15
2022-08-26T10:07:01.393Z,35.19
2022-08-26T10:09:43.475Z,35.00
2022-08-26T10:12:18.912Z,34.95
2022-08-26T10:14:54.989Z,35.03
2022-08-26T10:18:25.091Z,35.20
2022-08-26T10:21:07.255Z,35.00
2022-08-26T10:23:45.076Z,35.01
2022-08-26T10:26:26.723Z,34.90
2022-08-26T10:29:22.986Z,34.87
2022-08-26T10:32:03.647Z,34.62
2022-08-26T10:34:35.033Z,34.61
2022-08-26T10:37:18.249Z,34.50
2022-08-26T10:40:00.972Z,34.60
2022-08-26T10:42:37.754Z,34.62
2022-08-26T10:45:19.808Z,34.24
2022-08-26T10:47:58.693Z,34.40
2022-08-26T10:50:37.478Z,34.18
2022-08-26T10:53:32.525Z,34.29
2022-08-26T10:56:29.719Z,34.16
2022-08-26T10:59:04.959Z,34.40
2022-08-26T11:02:29.772Z,34.27
2022-08-26T11:05:06.044Z,34.00
2022-08-26T11:07:36.752Z,33.70
2022-08-26T11:10:42.605Z,34.14
2022-08-26T11:13:12.288Z,33.76
2022-08-26T11:15:40.058Z,33.55
2022-08-26T11:18:12.155Z,33.73
2022-08-26T11:20:48.730Z,33.32
2022-08-26T11:23:22.865Z,33.19
2022-08-26T11:26:10.165Z,33.43
2022-08-26T11:28:50.361Z,33.10
2022-08-26T11:31:25.579Z,32.87
2022-08-26T11:33:59.876Z,32.99
2022-08-26T11:36:35.302Z,32.62
2022-08-26T11:39:36.883Z,32.85
2022-08-26T11:42:28.784Z,32.55
2022-08-26T11:44:58.891Z,32.46
2022-08-26T11:47:32.459Z,32.61
2022-08-26T11:50:25.043Z,32.56
2022-08-26T11:53:06.171Z,32.07
2022-08-26T11:55:41.899Z,32.36
2022-08-26T11:58:13.519Z,32.23
2022-08-26T12:00:45.688Z,32.05
2022-08-26T12:03:25.169Z,31.24
2022-08-26T12:05:54.247Z,31.14
2022-08-26T12:08:28.618Z,30.98
2022-08-26T12:11:09.881Z,30.79
2022-08-26T12:13:39.240Z,30.69
2022-08-26T12:16:07.869Z,30.86
2022-08-26T12:18:38.950Z,30.63
2022-08-26T12:21:20.357Z,30.51
2022-08-26T12:24:04.931Z,30.73
2022-08-26T12:26:37.567Z,30.39
2022-08-26T12:29:32.071Z,30.51
2022-08-26T12:32:18.044Z,30.61
2022-08-26T12:34:49.071Z,30.59
2022-08-26T12:37:19.115Z,30.57
2022-08-26T12:39:49.414Z,29.93
2022-08-26T12:42:21.962Z,29.95
2022-08-26T12:45:04.562Z,29.78
2022-08-26T12:47:42.196Z,29.60
2022-08-26T12:50:31.232Z,29.51
2022-08-26T12:52:59.654Z,29.40
2022-08-26T12:55:53.402Z,28.96
2022-08-26T12:58:38.771Z,28.83
2022-08-26T13:01:07.218Z,28.51
2022-08-26T13:03:38.761Z,28.62
2022-08-26T13:06:15.441Z,28.52
2022-08-26T13:09:10.032Z,28.59
2022-08-26T13:11:41.525Z,28.43
2022-08-26T13:14:21.100Z,28.10
2022-08-26T13:16:53.267Z,28.04
2022-08-26T13:19:25.775Z,28.15
2022-08-26T13:22:00.279Z,28.19
2022-08-26T13:24:36.159Z,27.75
2022-08-26T13:27:07.547Z,27.64
2022-08-26T13:29:37.244Z,27.40
2022-08-26T13:32:07.949Z,27.30
2022-08-26T13:34:38.189Z,27.05
2022-08-26T13:37:07.387Z,27.43
2022-08-26T13:39:35.359Z,27.32
2022-08-26T13:42:03.740Z,27.14
2022-08-26T13:44:31.480Z,27.10
2022-08-26T13:47:00.317Z,26.70
2022-08-26T13:49:28.456Z,26.56
2022-08-26T13:51:56.923Z,26.96
2022-08-26T13:54:24.744Z,26.95
2022-08-26T13:56:53.690Z,26.87
2022-08-26T13:59:21.812Z,26.93
2022-08-26T14:01:50.750Z,26.87
2022-08-26T14:04:26.932Z,26.66
2022-08-26T14:06:55.968Z,26.76
2022-08-26T14:09:24.544Z,26.91
2022-08-26T14:11:54.296Z,26.96
2022-08-26T14:14:23.630Z,27.02
2022-08-26T14:17:00.119Z,26.64
2022-08-26T14:19:30.778Z,26.55
2022-08-26T14:22:01.360Z,27.03
2022-08-26T14:24:30.281Z,27.12
2022-08-26T14:27:00.179Z,26.97
2022-08-26T14:29:28.308Z,27.43
2022-08-26T14:32:03.507Z,27.37
2022-08-26T14:34:31.823Z,27.66
2022-08-26T14:36:59.864Z,28.15
2022-08-26T14:39:37.818Z,28.09
2022-08-26T14:42:07.579Z,28.13
2022-08-26T14:44:37.515Z,28.30
2022-08-26T14:47:07.458Z,28.52
2022-08-26T14:49:36.699Z,28.93
2022-08-26T14:52:05.866Z,29.18
2022-08-26T14:54:34.057Z,29.26
2022-08-26T14:57:08.138Z,29.23
2022-08-26T14:59:40.990Z,29.68
2022-08-26T15:02:13.661Z,29.78
2022-08-26T15:04:51.442Z,29.71
2022-08-26T15:07:19.740Z,29.94
2022-08-26T15:09:50.195Z,29.53
2022-08-26T15:12:18.456Z,29.37
2022-08-26T15:14:48.572Z,29.65
2022-08-26T15:17:17.895Z,29.58
2022-08-26T15:19:47.621Z,29.65
2022-08-26T15:22:15.871Z,29.64
2022-08-26T15:24:44.012Z,29.00
2022-08-26T15:27:12.408Z,29.22
2022-08-26T15:29:41.553Z,29.23
2022-08-26T15:32:10.096Z,29.06
2022-08-26T15:34:38.964Z,28.96
2022-08-26T15:37:07.073Z,29.15
2022-08-26T15:39:35.525Z,28.86
2022-08-26T15:42:04.317Z,28.99
2022-08-26T15:44:34.370Z,29.22
2022-08-26T15:47:02.862Z,29.03
2022-08-26T15:49:31.125Z,29.49
2022-08-26T15:51:59.064Z,29.65
2022-08-26T15:54:27.262Z,29.28
2022-08-26T15:56:56.374Z,29.48
2022-08-26T15:59:25.287Z,29.52
2022-08-26T16:01:53.618Z,29.66
2022-08-26T16:04:22.904Z,29.60
2022-08-26T16:06:53.305Z,29.88
2022-08-26T16:09:26.947Z,29.31
2022-08-26T16:11:56.285Z,29.43
2022-08-26T16:14:24.512Z,29.39
2022-08-26T16:16:54.226Z,29.76
2022-08-26T16:19:22.290Z,29.17
2022-08-26T16:21:52.109Z,29.77
2022-08-26T16:24:28.370Z,30.38
2022-08-26T16:26:59.289Z,31.33
2022-08-26T16:29:27.916Z,31.63
2022-08-26T16:31:56.837Z,32.59
2022-08-26T16:34:25.181Z,33.02
2022-08-26T16:36:53.534Z,33.60
2022-08-26T16:39:21.912Z,33.82
2022-08-26T16:41:51.481Z,33.86
2022-08-26T16:44:19.698Z,34.07
2022-08-26T16:46:48.328Z,34.50
2022-08-26T16:49:17.478Z,34.78
2022-08-26T16:51:46.837Z,35.36
2022-08-26T16:54:15.118Z,35.65
2022-08-26T16:56:43.979Z,35.86
2022-08-26T16:59:12.064Z,36.00
2022-08-26T17:01:40.390Z,36.27
2022-08-26T17:04:08.927Z,36.02
2022-08-26T17:06:38.264Z,35.99
2022-08-26T17:09:08.751Z,36.16
2022-08-26T17:11:36.866Z,36.14
2022-08-26T17:14:06.531Z,36.23
2022-08-26T17:16:36.485Z,36.27
2022-08-26T17:19:06.286Z,37.08
2022-08-26T17:21:36.546Z,37.15
2022-08-26T17:24:06.257Z,36.68
2022-08-26T17:26:37.270Z,38.28
2022-08-26T17:29:07.663Z,39.17
2022-08-26T17:31:35.809Z,39.44
2022-08-26T17:34:04.381Z,39.79
2022-08-26T17:36:33.653Z,39.38
2022-08-26T17:39:02.750Z,39.51
2022-08-26T17:41:31.048Z,39.79
2022-08-26T17:43:59.546Z,40.20
2022-08-26T17:46:28.231Z,40.62
2022-08-26T17:48:56.696Z,40.71
2022-08-26T17:51:26.145Z,40.70
2022-08-26T17:53:54.561Z,41.20
2022-08-26T17:56:28.163Z,41.29
2022-08-26T17:59:03.525Z,41.42
2022-08-26T18:01:33.152Z,41.89
2022-08-26T18:04:01.941Z,41.93
2022-08-26T18:06:31.306Z,41.70
2022-08-26T18:09:01.075Z,42.22
2022-08-26T18:11:29.882Z,42.31
2022-08-26T18:13:59.584Z,42.48
2022-08-26T18:16:31.677Z,43.08
2022-08-26T18:19:00.491Z,43.14
2022-08-26T18:21:28.873Z,43.35
2022-08-26T18:23:58.639Z,43.87
2022-08-26T18:26:49.529Z,44.17
2022-08-26T18:29:19.689Z,44.26
2022-08-26T18:31:49.640Z,44.39
2022-08-26T18:34:19.546Z,44.63
2022-08-26T18:36:48.523Z,44.54
2022-08-26T18:39:19.547Z,44.48
2022-08-26T18:41:53.658Z,44.70
2022-08-26T18:44:23.414Z,45.32
2022-08-26T18:46:53.227Z,45.16
2022-08-26T18:49:23.173Z,45.46
2022-08-26T18:51:52.650Z,45.36
2022-08-26T18:54:22.009Z,45.67
2022-08-26T18:56:52.118Z,45.36
2022-08-26T18:59:29.558Z,45.91
2022-08-26T19:02:00.517Z,45.76
2022-08-26T19:04:28.765Z,45.89
2022-08-26T19:06:58.091Z,46.52
2022-08-26T19:09:26.630Z,46.24
2022-08-26T19:14:30.531Z,46.79
2022-08-26T19:16:59.208Z,46.71
2022-08-26T19:19:27.865Z,47.03
2022-08-26T19:21:56.362Z,46.69
2022-08-26T19:24:28.153Z,46.86
2022-08-26T19:27:00.323Z,46.77
2022-08-26T19:29:35.379Z,47.04
2022-08-26T19:32:04.741Z,47.11
2022-08-26T19:34:32.876Z,46.88
2022-08-26T19:37:01.074Z,47.21
2022-08-26T19:39:29.551Z,47.15
2022-08-26T19:41:57.594Z,47.54
2022-08-26T19:44:45.624Z,47.42
2022-08-26T19:47:14.857Z,47.54
2022-08-26T19:49:44.189Z,47.81
2022-08-26T19:52:12.919Z,47.82
2022-08-26T19:54:41.436Z,47.96
2022-08-26T19:57:11.226Z,47.77
2022-08-26T19:59:40.404Z,47.86
2022-08-26T20:02:11.103Z,47.90
2022-08-26T20:04:41.863Z,48.14
2022-08-26T20:07:18.511Z,48.36
2022-08-26T20:09:48.717Z,47.99
2022-08-26T20:12:18.852Z,48.47
2022-08-26T20:14:47.670Z,48.69
2022-08-26T20:17:17.361Z,48.63
2022-08-26T20:20:04.733Z,48.57
2022-08-26T20:22:33.730Z,48.36
2022-08-26T20:25:02.362Z,48.29
2022-08-26T20:27:37.912Z,48.17
2022-08-26T20:30:09.087Z,48.06
2022-08-26T20:32:38.488Z,47.62
2022-08-26T20:35:11.527Z,47.51
2022-08-26T20:37:41.271Z,47.61
2022-08-26T20:40:12.537Z,47.18
2022-08-26T20:42:40.986Z,47.21
2022-08-26T20:45:09.843Z,46.76
2022-08-26T20:47:38.047Z,46.64
2022-08-26T20:50:08.081Z,46.50
2022-08-26T20:52:36.738Z,46.48
2022-08-26T20:55:06.865Z,46.45
2022-08-26T20:57:34.810Z,46.36
2022-08-26T21:00:04.649Z,46.18
2022-08-26T21:02:32.531Z,46.04
2022-08-26T21:05:01.706Z,46.12
2022-08-26T21:07:30.295Z,45.84
2022-08-26T21:09:58.685Z,46.14
2022-08-26T21:12:28.586Z,46.02
2022-08-26T21:14:59.156Z,45.94
2022-08-26T21:17:27.310Z,46.69
2022-08-26T21:19:55.532Z,47.07
2022-08-26T21:22:24.065Z,47.49
2022-08-26T21:24:52.241Z,47.52
2022-08-26T21:27:26.201Z,47.66
2022-08-26T21:29:54.797Z,47.81
2022-08-26T21:32:24.415Z,48.18
2022-08-26T21:34:56.354Z,48.35
2022-08-26T21:37:26.103Z,48.88
2022-08-26T21:39:59.047Z,49.22
2022-08-26T21:42:28.679Z,49.95
2022-08-26T21:44:57.652Z,50.26
2022-08-26T21:47:26.216Z,50.88
2022-08-26T21:49:54.643Z,51.03
2022-08-26T21:52:22.889Z,51.42
2022-08-26T21:54:51.237Z,51.52
2022-08-26T21:57:20.641Z,51.95
2022-08-26T21:59:48.551Z,52.38
2022-08-26T22:02:16.930Z,52.48
2022-08-26T22:04:48.831Z,52.79
2022-08-26T22:07:19.712Z,52.64
2022-08-26T22:09:49.643Z,53.11
2022-08-26T22:12:18.393Z,53.28
2022-08-26T22:14:47.774Z,53.61
2022-08-26T22:17:17.332Z,53.71
2022-08-26T22:19:45.915Z,54.50
2022-08-26T22:22:14.924Z,55.78
2022-08-26T22:24:43.673Z,57.01
2022-08-26T22:27:14.016Z,57.26
2022-08-26T22:29:42.136Z,58.34
2022-08-26T22:32:11.416Z,58.85
2022-08-26T22:34:40.874Z,59.32
2022-08-26T22:37:08.713Z,59.52
2022-08-26T22:39:36.849Z,59.90
2022-08-26T22:42:06.098Z,59.76
2022-08-26T22:44:36.522Z,60.01
2022-08-26T22:47:04.498Z,60.06
2022-08-26T22:49:32.764Z,60.41
2022-08-26T22:52:00.669Z,60.52
2022-08-26T22:54:29.241Z,60.53
2022-08-26T22:56:57.482Z,60.66
2022-08-26T22:59:27.041Z,60.55
2022-08-26T23:01:55.002Z,60.60
2022-08-26T23:04:24.164Z,60.80
2022-08-26T23:06:52.110Z,60.86
2022-08-26T23:09:20.109Z,61.14
2022-08-26T23:11:49.772Z,60.82
2022-08-26T23:14:19.345Z,60.98
2022-08-26T23:16:48.468Z,61.12
2022-08-26T23:19:21.322Z,60.88
2022-08-26T23:21:50.553Z,60.85
2022-08-26T23:24:18.634Z,61.13
2022-08-26T23:26:47.090Z,61.29
2022-08-26T23:29:15.904Z,61.31
2022-08-26T23:31:44.565Z,61.03
2022-08-26T23:34:32.410Z,60.97
2022-08-26T23:37:02.667Z,61.26
2022-08-26T23:39:36.564Z,60.88
2022-08-26T23:42:06.501Z,61.31
2022-08-26T23:44:35.299Z,61.18
2022-08-26T23:47:05.221Z,60.81
2022-08-26T23:49:34.468Z,60.54
2022-08-26T23:52:22.988Z,60.31
2022-08-26T23:54:53.557Z,60.40
2022-08-26T23:57:24.053Z,59.93
2022-08-26T23:59:53.806Z,60.09
